Аэропорт
Нарита (RJAA)

 RJAA / NRT

Japan
JP-12
Токио-Нарита
 35.76470, 140.38600  / 141 ft

 RJAA 182330Z 03007KT 010V070 9999 -RA FEW015 BKN030 25/22 Q1012 NOSIG RMK 1CU015 7SC030 A2988
 TAF RJAA 181705Z 1818/2000 04008KT 9999 FEW008 BKN015 TEMPO 1822/1903 FEW005 BKN008

2020 © VATRUS division (Privacy Policy)